createdAt,value
2023-03-30T00:00:08.783Z,5.30
2023-03-30T00:02:35.458Z,5.31
2023-03-30T00:05:02.207Z,5.56
2023-03-30T00:07:29.594Z,5.52
2023-03-30T00:09:56.916Z,5.52
2023-03-30T00:12:23.557Z,5.33
2023-03-30T00:14:50.654Z,5.30
2023-03-30T00:17:17.395Z,5.44
2023-03-30T00:19:44.126Z,5.27
2023-03-30T00:22:13.202Z,5.11
2023-03-30T00:24:40.058Z,5.14
2023-03-30T00:27:06.788Z,5.12
2023-03-30T00:29:33.524Z,5.29
2023-03-30T00:32:00.275Z,5.16
2023-03-30T00:34:26.974Z,5.01
2023-03-30T00:36:53.569Z,4.97
2023-03-30T00:39:20.308Z,5.06
2023-03-30T00:41:46.944Z,4.73
2023-03-30T00:44:51.244Z,4.79
2023-03-30T00:47:18.149Z,4.85
2023-03-30T00:49:45.145Z,4.73
2023-03-30T00:52:12.910Z,4.88
2023-03-30T00:54:40.388Z,4.96
2023-03-30T00:57:08.107Z,5.51
2023-03-30T00:59:34.809Z,5.42
2023-03-30T01:02:01.900Z,5.89
2023-03-30T01:04:28.593Z,5.58
2023-03-30T01:06:55.627Z,5.21
2023-03-30T01:09:22.376Z,5.17
2023-03-30T01:11:49.330Z,5.17
2023-03-30T01:14:17.184Z,5.11
2023-03-30T01:16:58.990Z,5.24
2023-03-30T01:19:25.568Z,5.22
2023-03-30T01:22:26.259Z,5.20
2023-03-30T01:25:15.005Z,5.14
2023-03-30T01:28:05.901Z,5.17
2023-03-30T01:30:54.646Z,4.86
2023-03-30T01:34:03.165Z,4.91
2023-03-30T01:36:50.999Z,5.15
2023-03-30T01:39:36.034Z,4.79
2023-03-30T01:42:13.027Z,4.89
2023-03-30T01:44:42.363Z,4.73
2023-03-30T01:47:22.313Z,4.90
2023-03-30T01:50:00.791Z,4.97
2023-03-30T01:52:51.749Z,5.11
2023-03-30T01:55:44.983Z,4.71
2023-03-30T01:58:22.090Z,4.85
2023-03-30T02:00:50.565Z,4.94
2023-03-30T02:03:33.275Z,5.07
2023-03-30T02:06:18.519Z,4.71
2023-03-30T02:08:48.929Z,5.06
2023-03-30T02:11:15.593Z,4.60
2023-03-30T02:13:44.482Z,4.92
2023-03-30T02:16:24.473Z,4.61
2023-03-30T02:18:51.297Z,4.36
2023-03-30T02:21:17.943Z,4.35
2023-03-30T02:23:46.578Z,4.35
2023-03-30T02:26:13.996Z,3.97
2023-03-30T02:28:40.986Z,4.18
2023-03-30T02:31:15.006Z,4.08
2023-03-30T02:33:59.962Z,3.87
2023-03-30T02:36:52.923Z,4.19
2023-03-30T02:39:25.303Z,3.87
2023-03-30T02:42:09.010Z,4.01
2023-03-30T02:44:54.801Z,4.20
2023-03-30T02:48:00.600Z,4.08
2023-03-30T02:51:05.990Z,3.91
2023-03-30T02:54:03.956Z,3.91
2023-03-30T02:57:01.310Z,3.44
2023-03-30T02:59:36.451Z,3.81
2023-03-30T03:02:19.601Z,3.98
2023-03-30T03:04:50.476Z,4.08
2023-03-30T03:07:19.926Z,3.90
2023-03-30T03:09:46.778Z,3.48
2023-03-30T03:12:13.827Z,3.79
2023-03-30T03:14:40.574Z,4.06
2023-03-30T03:17:07.416Z,4.03
2023-03-30T03:19:34.147Z,3.97
2023-03-30T03:22:00.850Z,3.64
2023-03-30T03:24:27.632Z,3.50
2023-03-30T03:26:54.252Z,3.50
2023-03-30T03:29:20.935Z,3.43
2023-03-30T03:31:47.560Z,3.58
2023-03-30T03:34:14.196Z,3.76
2023-03-30T03:36:40.864Z,4.07
2023-03-30T03:39:07.500Z,4.19
2023-03-30T03:41:34.401Z,4.05
2023-03-30T03:44:01.077Z,3.91
2023-03-30T03:46:28.150Z,3.97
2023-03-30T03:48:54.913Z,3.84
2023-03-30T03:51:21.568Z,3.92
2023-03-30T03:53:48.199Z,3.90
2023-03-30T03:56:14.840Z,3.52
2023-03-30T03:58:41.465Z,3.34
2023-03-30T04:01:08.309Z,3.56
2023-03-30T04:03:35.262Z,3.77
2023-03-30T04:06:01.959Z,3.89
2023-03-30T04:08:29.456Z,4.06
2023-03-30T04:10:56.128Z,4.16
2023-03-30T04:13:22.769Z,3.73
2023-03-30T04:15:49.501Z,3.46
2023-03-30T04:18:16.130Z,3.60
2023-03-30T04:20:42.811Z,3.46
2023-03-30T04:23:09.406Z,3.58
2023-03-30T04:25:35.992Z,3.44
2023-03-30T04:28:02.701Z,3.65
2023-03-30T04:30:29.309Z,3.79
2023-03-30T04:32:55.976Z,3.65
2023-03-30T04:35:22.673Z,3.60
2023-03-30T04:37:49.311Z,3.93
2023-03-30T04:40:16.242Z,3.99
2023-03-30T04:42:42.871Z,3.99
2023-03-30T04:45:10.085Z,4.07
2023-03-30T04:47:36.926Z,3.96
2023-03-30T04:50:03.963Z,4.01
2023-03-30T04:52:30.570Z,3.76
2023-03-30T04:54:57.208Z,3.67
2023-03-30T04:57:23.990Z,3.78
2023-03-30T04:59:51.017Z,4.00
2023-03-30T05:02:17.741Z,4.14
2023-03-30T05:04:44.453Z,4.26
2023-03-30T05:07:11.196Z,4.14
2023-03-30T05:09:37.791Z,3.95
2023-03-30T05:12:04.643Z,4.11
2023-03-30T05:14:31.454Z,3.97
2023-03-30T05:16:58.139Z,4.33
2023-03-30T05:19:25.040Z,4.49
2023-03-30T05:21:51.693Z,4.44
2023-03-30T05:24:18.413Z,4.60
2023-03-30T05:26:44.994Z,4.70
2023-03-30T05:29:11.594Z,4.67
2023-03-30T05:31:38.403Z,4.62
2023-03-30T05:34:05.111Z,4.81
2023-03-30T05:36:31.765Z,4.55
2023-03-30T05:39:01.573Z,4.31
2023-03-30T05:41:28.198Z,4.29
2023-03-30T05:43:54.949Z,4.59
2023-03-30T05:46:21.672Z,4.41
2023-03-30T05:48:48.441Z,4.91
2023-03-30T05:51:15.134Z,4.56
2023-03-30T05:53:42.025Z,4.46
2023-03-30T05:56:09.134Z,4.54
2023-03-30T05:58:35.925Z,4.42
2023-03-30T06:01:02.805Z,4.79
2023-03-30T06:03:29.888Z,4.98
2023-03-30T06:05:56.614Z,5.05
2023-03-30T06:08:23.247Z,5.11
2023-03-30T06:10:54.849Z,5.22
2023-03-30T06:13:21.754Z,4.95
2023-03-30T06:15:48.713Z,5.10
2023-03-30T06:18:15.731Z,4.81
2023-03-30T06:20:42.496Z,5.20
2023-03-30T06:23:09.128Z,5.30
2023-03-30T06:25:35.874Z,5.36
2023-03-30T06:28:02.647Z,4.93
2023-03-30T06:30:29.256Z,5.47
2023-03-30T06:32:56.309Z,5.36
2023-03-30T06:35:23.034Z,5.73
2023-03-30T06:37:49.709Z,5.88
2023-03-30T06:40:16.502Z,6.02
2023-03-30T06:42:44.191Z,6.21
2023-03-30T06:45:11.630Z,5.87
2023-03-30T06:47:38.250Z,6.12
2023-03-30T06:50:05.638Z,6.32
2023-03-30T06:52:36.267Z,6.22
2023-03-30T06:55:04.039Z,5.99
2023-03-30T06:57:30.801Z,5.98
2023-03-30T06:59:57.545Z,6.15
2023-03-30T07:02:24.178Z,6.12
2023-03-30T07:04:51.213Z,5.97
2023-03-30T07:07:17.872Z,6.16
2023-03-30T07:09:44.518Z,5.78
2023-03-30T07:12:11.194Z,5.97
2023-03-30T07:14:37.795Z,6.13
2023-03-30T07:17:04.459Z,5.94
2023-03-30T07:19:31.069Z,6.22
2023-03-30T07:21:57.735Z,6.11
2023-03-30T07:24:24.500Z,6.40
2023-03-30T07:26:51.224Z,6.33
2023-03-30T07:29:17.899Z,6.65
2023-03-30T07:31:44.590Z,6.93
2023-03-30T07:34:11.422Z,6.68
2023-03-30T07:36:38.105Z,6.59
2023-03-30T07:39:04.733Z,6.83
2023-03-30T07:41:31.350Z,6.68
2023-03-30T07:43:58.094Z,7.00
2023-03-30T07:46:24.787Z,7.02
2023-03-30T07:48:51.434Z,7.28
2023-03-30T07:51:18.286Z,7.56
2023-03-30T07:53:47.768Z,7.66
2023-03-30T07:56:14.412Z,7.84
2023-03-30T07:58:41.063Z,7.69
2023-03-30T08:01:07.675Z,7.77
2023-03-30T08:03:34.478Z,7.59
2023-03-30T08:06:03.145Z,7.32
2023-03-30T08:08:31.046Z,7.73
2023-03-30T08:10:58.274Z,7.74
2023-03-30T08:13:25.202Z,7.47
2023-03-30T08:15:52.109Z,7.48
2023-03-30T08:18:18.920Z,7.38
2023-03-30T08:20:45.739Z,7.69
2023-03-30T08:23:12.381Z,7.64
2023-03-30T08:25:38.960Z,7.50
2023-03-30T08:28:05.676Z,7.66
2023-03-30T08:30:32.771Z,7.67
2023-03-30T08:32:59.727Z,7.90
2023-03-30T08:35:26.530Z,8.12
2023-03-30T08:37:53.303Z,8.46
2023-03-30T08:40:20.401Z,8.16
2023-03-30T08:42:59.177Z,8.20
2023-03-30T08:45:39.036Z,8.56
2023-03-30T08:48:16.195Z,8.83
2023-03-30T08:50:50.315Z,8.43
2023-03-30T08:53:16.980Z,8.49
2023-03-30T08:55:49.998Z,8.51
2023-03-30T08:58:47.719Z,8.48
2023-03-30T09:01:28.250Z,8.31
2023-03-30T09:04:10.022Z,8.32
2023-03-30T09:06:42.382Z,8.43
2023-03-30T09:09:14.775Z,8.27
2023-03-30T09:11:41.976Z,8.29
2023-03-30T09:14:19.250Z,8.36
2023-03-30T09:17:05.791Z,8.57
2023-03-30T09:19:36.489Z,8.86
2023-03-30T09:22:05.994Z,8.89
2023-03-30T09:24:32.728Z,9.09
2023-03-30T09:27:09.928Z,9.05
2023-03-30T09:29:48.754Z,9.26
2023-03-30T09:32:31.496Z,8.75
2023-03-30T09:34:58.106Z,8.86
2023-03-30T09:37:25.963Z,9.02
2023-03-30T09:39:52.665Z,9.33
2023-03-30T09:42:31.491Z,9.25
2023-03-30T09:45:15.992Z,9.58
2023-03-30T09:47:42.956Z,9.53
2023-03-30T09:50:23.597Z,9.54
2023-03-30T09:53:00.293Z,9.60
2023-03-30T09:55:35.100Z,9.56
2023-03-30T09:58:18.318Z,9.55
2023-03-30T10:00:46.595Z,9.78
2023-03-30T10:03:22.760Z,9.82
2023-03-30T10:06:04.272Z,10.02
2023-03-30T10:08:31.401Z,10.28
2023-03-30T10:10:59.468Z,10.15
2023-03-30T10:13:33.685Z,10.23
2023-03-30T10:16:07.103Z,10.24
2023-03-30T10:18:39.994Z,10.43
2023-03-30T10:21:12.888Z,10.29
2023-03-30T10:23:40.834Z,10.29
2023-03-30T10:26:18.955Z,10.32
2023-03-30T10:28:57.326Z,10.72
2023-03-30T10:31:27.941Z,10.46
2023-03-30T10:33:58.437Z,10.24
2023-03-30T10:36:31.723Z,10.67
2023-03-30T10:39:10.832Z,10.86
2023-03-30T10:41:40.209Z,10.35
2023-03-30T10:44:38.005Z,10.18
2023-03-30T10:47:29.682Z,10.23
2023-03-30T10:50:08.749Z,10.61
2023-03-30T10:53:03.122Z,10.88
2023-03-30T10:55:34.581Z,11.17
2023-03-30T10:58:13.298Z,10.85
2023-03-30T11:00:55.788Z,10.48
2023-03-30T11:03:26.618Z,10.57
2023-03-30T11:06:17.982Z,11.22
2023-03-30T11:08:48.072Z,11.53
2023-03-30T11:11:38.764Z,11.53
2023-03-30T11:14:17.096Z,11.45
2023-03-30T11:17:02.308Z,11.12
2023-03-30T11:19:42.009Z,11.16
2023-03-30T11:22:38.520Z,10.98
2023-03-30T11:25:19.892Z,10.79
2023-03-30T11:27:58.912Z,10.91
2023-03-30T11:30:34.976Z,11.20
2023-03-30T11:33:29.161Z,10.97
2023-03-30T11:36:01.885Z,10.62
2023-03-30T11:38:43.651Z,10.42
2023-03-30T11:41:18.139Z,10.83
2023-03-30T11:43:44.990Z,10.72
2023-03-30T11:46:27.591Z,10.73
2023-03-30T11:49:36.932Z,10.93
2023-03-30T11:52:27.150Z,11.12
2023-03-30T11:55:04.944Z,11.58
2023-03-30T11:57:33.584Z,11.37
2023-03-30T12:00:31.194Z,11.70
2023-03-30T12:03:35.267Z,11.56
2023-03-30T12:06:34.044Z,12.01
2023-03-30T12:09:19.721Z,11.92
2023-03-30T12:11:49.941Z,12.17
2023-03-30T12:14:33.659Z,12.18
2023-03-30T12:17:13.600Z,12.01
2023-03-30T12:19:55.617Z,12.30
2023-03-30T12:22:39.838Z,12.33
2023-03-30T12:25:26.773Z,12.49
2023-03-30T12:28:02.695Z,12.41
2023-03-30T12:30:41.878Z,12.66
2023-03-30T12:33:33.809Z,12.50
2023-03-30T12:36:03.033Z,12.48
2023-03-30T12:38:38.714Z,12.82
2023-03-30T12:41:09.981Z,12.71
2023-03-30T12:43:45.618Z,12.86
2023-03-30T12:46:24.795Z,12.84
2023-03-30T12:49:09.537Z,13.02
2023-03-30T12:52:07.691Z,13.08
2023-03-30T12:54:43.294Z,12.87
2023-03-30T12:57:19.353Z,12.66
2023-03-30T12:59:57.968Z,12.73
2023-03-30T13:02:49.238Z,12.76
2023-03-30T13:05:44.097Z,12.65
2023-03-30T13:08:27.289Z,12.60
2023-03-30T13:11:15.653Z,12.95
2023-03-30T13:13:57.930Z,13.10
2023-03-30T13:17:06.599Z,13.02
2023-03-30T13:19:33.379Z,13.10
2023-03-30T13:22:12.547Z,13.06
2023-03-30T13:24:41.803Z,13.16
2023-03-30T13:27:14.194Z,13.12
2023-03-30T13:29:41.977Z,13.06
2023-03-30T13:32:39.652Z,13.13
2023-03-30T13:35:30.772Z,13.14
2023-03-30T13:37:57.479Z,12.94
2023-03-30T13:40:41.540Z,13.01
2023-03-30T13:43:16.928Z,13.07
2023-03-30T13:46:13.294Z,13.18
2023-03-30T13:49:02.115Z,13.13
2023-03-30T13:51:30.231Z,13.36
2023-03-30T13:54:03.198Z,13.17
2023-03-30T13:56:33.501Z,13.03
2023-03-30T13:59:07.965Z,12.88
2023-03-30T14:01:39.110Z,13.05
2023-03-30T14:04:06.380Z,13.28
2023-03-30T14:06:33.984Z,13.40
2023-03-30T14:09:06.852Z,13.42
2023-03-30T14:11:36.671Z,13.79
2023-03-30T14:14:04.848Z,13.72
2023-03-30T14:16:37.456Z,13.58
2023-03-30T14:19:25.389Z,13.13
2023-03-30T14:22:04.739Z,13.34
2023-03-30T14:24:33.901Z,13.46
2023-03-30T14:27:15.348Z,13.21
2023-03-30T14:29:47.282Z,13.47
2023-03-30T14:32:16.255Z,13.63
2023-03-30T14:34:47.631Z,13.42
2023-03-30T14:37:14.614Z,13.54
2023-03-30T14:39:53.978Z,13.06
2023-03-30T14:42:24.454Z,13.44
2023-03-30T14:44:54.668Z,13.44
2023-03-30T14:47:24.729Z,13.60
2023-03-30T14:49:58.305Z,13.56
2023-03-30T14:52:33.438Z,13.29
2023-03-30T14:55:05.676Z,13.40
2023-03-30T14:57:36.847Z,13.52
2023-03-30T15:00:07.028Z,13.66
2023-03-30T15:02:35.810Z,13.81
2023-03-30T15:05:03.731Z,14.01
2023-03-30T15:07:32.044Z,13.40
2023-03-30T15:10:00.297Z,13.80
2023-03-30T15:12:35.951Z,13.60
2023-03-30T15:15:06.503Z,13.76
2023-03-30T15:17:35.319Z,13.84
2023-03-30T15:20:04.190Z,13.85
2023-03-30T15:22:30.913Z,13.88
2023-03-30T15:25:02.175Z,13.82
2023-03-30T15:27:30.136Z,13.88
2023-03-30T15:30:01.141Z,14.08
2023-03-30T15:32:39.077Z,14.01
2023-03-30T15:35:27.245Z,13.89
2023-03-30T15:38:32.362Z,14.12
2023-03-30T15:40:59.185Z,14.09
2023-03-30T15:43:30.863Z,14.10
2023-03-30T15:46:04.313Z,13.83
2023-03-30T15:48:40.873Z,13.68
2023-03-30T15:51:19.838Z,13.83
2023-03-30T15:53:54.465Z,13.48
2023-03-30T15:57:02.089Z,13.22
2023-03-30T15:59:49.840Z,13.48
2023-03-30T16:02:35.681Z,13.49
2023-03-30T16:05:04.138Z,13.24
2023-03-30T16:07:32.286Z,13.11
2023-03-30T16:09:59.025Z,12.95
2023-03-30T16:12:28.125Z,13.10
2023-03-30T16:14:55.605Z,13.01
2023-03-30T16:17:22.687Z,13.11
2023-03-30T16:19:49.339Z,13.12
2023-03-30T16:22:16.568Z,13.03
2023-03-30T16:24:43.394Z,13.13
2023-03-30T16:27:14.750Z,12.92
2023-03-30T16:29:41.562Z,12.90
2023-03-30T16:32:08.300Z,12.71
2023-03-30T16:34:35.103Z,12.69
2023-03-30T16:37:01.778Z,12.66
2023-03-30T16:39:29.688Z,12.89
2023-03-30T16:41:56.397Z,12.82
2023-03-30T16:44:24.326Z,12.50
2023-03-30T16:46:51.686Z,12.52
2023-03-30T16:49:21.129Z,12.63
2023-03-30T16:51:47.999Z,12.51
2023-03-30T16:54:27.617Z,12.51
2023-03-30T16:56:57.837Z,12.21
2023-03-30T16:59:27.026Z,12.37
2023-03-30T17:01:53.668Z,12.04
2023-03-30T17:04:20.395Z,12.01
2023-03-30T17:06:47.769Z,12.08
2023-03-30T17:09:17.018Z,11.98
2023-03-30T17:11:45.282Z,11.99
2023-03-30T17:14:12.241Z,11.95
2023-03-30T17:16:39.271Z,11.89
2023-03-30T17:19:09.307Z,11.96
2023-03-30T17:21:36.021Z,12.00
2023-03-30T17:24:02.633Z,12.13
2023-03-30T17:26:29.412Z,11.99
2023-03-30T17:28:56.300Z,12.24
2023-03-30T17:31:23.168Z,11.99
2023-03-30T17:33:50.086Z,11.85
2023-03-30T17:36:19.890Z,11.82
2023-03-30T17:38:48.498Z,12.00
2023-03-30T17:41:16.367Z,11.89
2023-03-30T17:43:43.085Z,11.66
2023-03-30T17:46:15.001Z,11.76
2023-03-30T17:48:41.926Z,11.59
2023-03-30T17:51:08.976Z,11.64
2023-03-30T17:53:35.805Z,11.53
2023-03-30T17:56:02.453Z,11.61
2023-03-30T17:58:34.898Z,11.50
2023-03-30T18:01:04.403Z,11.53
2023-03-30T18:03:31.765Z,11.33
2023-03-30T18:06:01.371Z,11.40
2023-03-30T18:08:28.740Z,11.22
2023-03-30T18:11:03.437Z,11.05
2023-03-30T18:13:30.228Z,10.51
2023-03-30T18:15:58.968Z,10.98
2023-03-30T18:18:28.640Z,11.30
2023-03-30T18:20:57.370Z,11.34
2023-03-30T18:23:24.082Z,11.45
2023-03-30T18:25:54.391Z,11.50
2023-03-30T18:28:26.162Z,11.34
2023-03-30T18:30:54.016Z,11.24
2023-03-30T18:33:21.178Z,11.10
2023-03-30T18:35:50.109Z,11.13
2023-03-30T18:38:19.914Z,11.37
2023-03-30T18:40:48.786Z,10.58
2023-03-30T18:43:16.520Z,10.59
2023-03-30T18:45:46.443Z,10.48
2023-03-30T18:48:15.805Z,10.50
2023-03-30T18:50:50.066Z,10.01
2023-03-30T18:53:19.103Z,10.20
2023-03-30T18:55:48.069Z,10.47
2023-03-30T18:58:18.512Z,10.19
2023-03-30T19:00:45.195Z,9.79
2023-03-30T19:03:12.229Z,10.09
2023-03-30T19:05:39.035Z,10.19
2023-03-30T19:08:05.652Z,10.66
2023-03-30T19:10:36.822Z,10.70
2023-03-30T19:13:03.955Z,10.61
2023-03-30T19:15:35.722Z,10.53
2023-03-30T19:18:03.822Z,10.41
2023-03-30T19:20:32.813Z,10.43
2023-03-30T19:23:00.528Z,10.82
2023-03-30T19:25:28.606Z,10.84
2023-03-30T19:28:03.303Z,10.44
2023-03-30T19:30:34.197Z,10.42
2023-03-30T19:33:04.892Z,10.45
2023-03-30T19:35:32.521Z,10.85
2023-03-30T19:37:59.766Z,10.36
2023-03-30T19:40:26.569Z,10.28
2023-03-30T19:42:53.212Z,10.49
2023-03-30T19:45:21.468Z,10.52
2023-03-30T19:47:48.232Z,10.29
2023-03-30T19:50:18.689Z,9.55
2023-03-30T19:52:46.594Z,9.41
2023-03-30T19:55:13.456Z,9.58
2023-03-30T19:57:40.151Z,10.05
2023-03-30T20:00:08.639Z,9.63
2023-03-30T20:02:35.412Z,9.65
2023-03-30T20:05:02.135Z,9.86
2023-03-30T20:07:28.917Z,9.63
2023-03-30T20:09:55.518Z,9.17
2023-03-30T20:12:22.117Z,9.06
2023-03-30T20:14:48.772Z,9.00
2023-03-30T20:17:15.371Z,9.29
2023-03-30T20:19:42.001Z,9.37
2023-03-30T20:22:08.666Z,9.24
2023-03-30T20:24:35.736Z,9.29
2023-03-30T20:27:02.685Z,9.54
2023-03-30T20:29:29.489Z,9.61
2023-03-30T20:31:56.182Z,9.69
2023-03-30T20:34:24.015Z,9.68
2023-03-30T20:36:50.635Z,9.73
2023-03-30T20:39:17.316Z,9.76
2023-03-30T20:41:44.059Z,9.73
2023-03-30T20:44:10.938Z,9.49
2023-03-30T20:46:39.021Z,9.77
2023-03-30T20:49:07.333Z,10.20
2023-03-30T20:51:34.858Z,10.58
2023-03-30T20:54:01.462Z,9.80
2023-03-30T20:56:28.076Z,9.63
2023-03-30T20:58:55.997Z,9.40
2023-03-30T21:01:27.632Z,9.47
2023-03-30T21:03:56.792Z,9.69
2023-03-30T21:06:25.095Z,9.51
2023-03-30T21:08:55.259Z,9.63
2023-03-30T21:11:23.403Z,9.61
2023-03-30T21:13:50.147Z,9.46
2023-03-30T21:16:17.299Z,9.62
2023-03-30T21:18:43.946Z,9.73
2023-03-30T21:21:10.627Z,9.43
2023-03-30T21:23:39.936Z,9.50
2023-03-30T21:26:07.622Z,9.05
2023-03-30T21:28:36.055Z,9.05
2023-03-30T21:31:06.902Z,8.92
2023-03-30T21:33:34.806Z,9.48
2023-03-30T21:36:02.576Z,10.09
2023-03-30T21:38:30.416Z,10.06
2023-03-30T21:41:00.014Z,9.76
2023-03-30T21:43:29.366Z,9.03
2023-03-30T21:46:02.021Z,9.26
2023-03-30T21:48:30.858Z,9.36
2023-03-30T21:51:02.936Z,9.41
2023-03-30T21:53:31.162Z,9.78
2023-03-30T21:55:59.012Z,9.09
2023-03-30T21:58:27.333Z,9.34
2023-03-30T22:01:08.522Z,9.68
2023-03-30T22:03:39.073Z,9.91
2023-03-30T22:06:08.311Z,10.06
2023-03-30T22:08:35.767Z,9.59
2023-03-30T22:11:14.647Z,8.57
2023-03-30T22:13:41.473Z,9.03
2023-03-30T22:16:14.406Z,9.08
2023-03-30T22:18:41.613Z,9.10
2023-03-30T22:21:12.778Z,9.27
2023-03-30T22:23:39.482Z,9.36
2023-03-30T22:26:06.302Z,9.34
2023-03-30T22:28:33.257Z,9.34
2023-03-30T22:30:59.914Z,9.45
2023-03-30T22:33:27.961Z,9.19
2023-03-30T22:35:54.688Z,9.01
2023-03-30T22:38:21.357Z,8.84
2023-03-30T22:40:48.011Z,9.07
2023-03-30T22:43:14.707Z,9.10
2023-03-30T22:45:43.425Z,8.84
2023-03-30T22:48:10.049Z,9.22
2023-03-30T22:50:36.907Z,9.32
2023-03-30T22:53:03.703Z,8.97
2023-03-30T22:55:30.370Z,8.94
2023-03-30T22:57:57.039Z,9.59
2023-03-30T23:00:24.242Z,9.29
2023-03-30T23:02:51.282Z,9.32
2023-03-30T23:05:18.778Z,9.16
2023-03-30T23:07:45.431Z,9.25
2023-03-30T23:10:15.730Z,8.95
2023-03-30T23:12:43.318Z,9.35
2023-03-30T23:15:11.154Z,9.26
2023-03-30T23:17:38.810Z,9.55
2023-03-30T23:20:07.459Z,10.11
2023-03-30T23:22:34.137Z,9.67
2023-03-30T23:25:01.044Z,9.78
2023-03-30T23:27:27.719Z,9.77
2023-03-30T23:29:54.389Z,9.76
2023-03-30T23:32:21.036Z,9.73
2023-03-30T23:34:47.633Z,9.84
2023-03-30T23:37:14.568Z,9.96
2023-03-30T23:39:41.186Z,9.88
2023-03-30T23:42:07.772Z,10.31
2023-03-30T23:44:34.652Z,10.53
2023-03-30T23:47:01.248Z,10.14
2023-03-30T23:49:28.376Z,9.83
2023-03-30T23:51:55.010Z,9.89
2023-03-30T23:54:21.931Z,9.39
2023-03-30T23:56:49.008Z,9.40
2023-03-30T23:59:15.794Z,10.17
